sensor_id;sensor_type;location;lat;lon;timestamp;P1;durP1;ratioP1;P2;durP2;ratioP2
53871;SDS011;39787;53.174;5.798;2023-07-20T00:00:39;6.63;;;3.20;;
53871;SDS011;39787;53.174;5.798;2023-07-20T00:01:39;1.42;;;1.33;;
53871;SDS011;39787;53.174;5.798;2023-07-20T00:02:40;3.70;;;1.70;;
53871;SDS011;39787;53.174;5.798;2023-07-20T00:03:41;1.30;;;1.20;;
53871;SDS011;39787;53.174;5.798;2023-07-20T00:04:42;1.30;;;1.30;;
53871;SDS011;39787;53.174;5.798;2023-07-20T00:05:43;1.40;;;1.33;;
53871;SDS011;39787;53.174;5.798;2023-07-20T00:06:44;2.00;;;1.33;;
53871;SDS011;39787;53.174;5.798;2023-07-20T00:07:45;5.05;;;1.45;;
53871;SDS011;39787;53.174;5.798;2023-07-20T00:08:46;4.97;;;1.45;;
53871;SDS011;39787;53.174;5.798;2023-07-20T00:09:47;1.63;;;1.50;;
53871;SDS011;39787;53.174;5.798;2023-07-20T00:10:47;1.90;;;1.73;;
53871;SDS011;39787;53.174;5.798;2023-07-20T00:11:49;3.67;;;1.75;;
53871;SDS011;39787;53.174;5.798;2023-07-20T00:13:51;1.83;;;1.60;;
53871;SDS011;39787;53.174;5.798;2023-07-20T00:14:52;1.42;;;1.42;;
53871;SDS011;39787;53.174;5.798;2023-07-20T00:15:52;2.33;;;1.50;;
53871;SDS011;39787;53.174;5.798;2023-07-20T00:16:55;1.83;;;1.55;;
53871;SDS011;39787;53.174;5.798;2023-07-20T00:17:56;5.45;;;1.90;;
53871;SDS011;39787;53.174;5.798;2023-07-20T00:18:56;2.40;;;1.80;;
53871;SDS011;39787;53.174;5.798;2023-07-20T00:19:57;2.13;;;1.80;;
53871;SDS011;39787;53.174;5.798;2023-07-20T00:20:58;2.22;;;1.98;;
53871;SDS011;39787;53.174;5.798;2023-07-20T00:21:59;2.33;;;1.92;;
53871;SDS011;39787;53.174;5.798;2023-07-20T00:23:00;2.13;;;1.87;;
53871;SDS011;39787;53.174;5.798;2023-07-20T00:24:00;2.93;;;1.73;;
53871;SDS011;39787;53.174;5.798;2023-07-20T00:25:01;3.37;;;1.90;;
53871;SDS011;39787;53.174;5.798;2023-07-20T00:26:02;2.55;;;2.10;;
53871;SDS011;39787;53.174;5.798;2023-07-20T00:27:02;2.10;;;1.90;;
53871;SDS011;39787;53.174;5.798;2023-07-20T00:28:03;1.60;;;1.60;;
53871;SDS011;39787;53.174;5.798;2023-07-20T00:29:04;2.20;;;1.60;;
53871;SDS011;39787;53.174;5.798;2023-07-20T00:30:04;1.87;;;1.77;;
53871;SDS011;39787;53.174;5.798;2023-07-20T00:31:05;1.77;;;1.63;;
53871;SDS011;39787;53.174;5.798;2023-07-20T00:32:06;4.37;;;2.17;;
53871;SDS011;39787;53.174;5.798;2023-07-20T00:33:09;2.67;;;1.60;;
53871;SDS011;39787;53.174;5.798;2023-07-20T00:34:10;1.85;;;1.45;;
53871;SDS011;39787;53.174;5.798;2023-07-20T00:35:11;3.47;;;1.90;;
53871;SDS011;39787;53.174;5.798;2023-07-20T00:36:12;1.53;;;1.43;;
53871;SDS011;39787;53.174;5.798;2023-07-20T00:37:12;3.77;;;1.77;;
53871;SDS011;39787;53.174;5.798;2023-07-20T00:38:13;1.53;;;1.40;;
53871;SDS011;39787;53.174;5.798;2023-07-20T00:39:13;1.83;;;1.50;;
53871;SDS011;39787;53.174;5.798;2023-07-20T00:40:14;6.13;;;1.67;;
53871;SDS011;39787;53.174;5.798;2023-07-20T00:41:14;5.13;;;1.70;;
53871;SDS011;39787;53.174;5.798;2023-07-20T00:42:14;1.93;;;1.50;;
53871;SDS011;39787;53.174;5.798;2023-07-20T00:43:15;1.63;;;1.53;;
53871;SDS011;39787;53.174;5.798;2023-07-20T00:44:15;1.70;;;1.50;;
53871;SDS011;39787;53.174;5.798;2023-07-20T00:45:16;3.97;;;1.37;;
53871;SDS011;39787;53.174;5.798;2023-07-20T00:46:16;1.70;;;1.60;;
53871;SDS011;39787;53.174;5.798;2023-07-20T00:47:17;1.53;;;1.50;;
53871;SDS011;39787;53.174;5.798;2023-07-20T00:48:18;7.40;;;1.60;;
53871;SDS011;39787;53.174;5.798;2023-07-20T00:49:18;3.67;;;1.55;;
53871;SDS011;39787;53.174;5.798;2023-07-20T00:50:19;1.55;;;1.50;;
53871;SDS011;39787;53.174;5.798;2023-07-20T00:51:20;1.60;;;1.50;;
53871;SDS011;39787;53.174;5.798;2023-07-20T00:52:23;4.75;;;1.60;;
53871;SDS011;39787;53.174;5.798;2023-07-20T00:53:25;5.40;;;1.75;;
53871;SDS011;39787;53.174;5.798;2023-07-20T00:54:26;3.67;;;1.52;;
53871;SDS011;39787;53.174;5.798;2023-07-20T00:55:27;2.25;;;1.60;;
53871;SDS011;39787;53.174;5.798;2023-07-20T00:56:28;6.82;;;1.60;;
53871;SDS011;39787;53.174;5.798;2023-07-20T00:57:29;7.43;;;1.80;;
53871;SDS011;39787;53.174;5.798;2023-07-20T00:58:30;3.88;;;1.80;;
53871;SDS011;39787;53.174;5.798;2023-07-20T00:59:30;2.33;;;1.70;;
53871;SDS011;39787;53.174;5.798;2023-07-20T01:00:31;2.47;;;1.77;;
53871;SDS011;39787;53.174;5.798;2023-07-20T01:01:32;1.90;;;1.80;;
53871;SDS011;39787;53.174;5.798;2023-07-20T01:02:33;1.63;;;1.52;;
53871;SDS011;39787;53.174;5.798;2023-07-20T01:03:34;4.53;;;1.90;;
53871;SDS011;39787;53.174;5.798;2023-07-20T01:04:34;2.50;;;1.90;;
53871;SDS011;39787;53.174;5.798;2023-07-20T01:06:45;1.98;;;1.88;;
53871;SDS011;39787;53.174;5.798;2023-07-20T01:07:55;3.97;;;1.95;;
53871;SDS011;39787;53.174;5.798;2023-07-20T01:11:09;2.13;;;1.90;;
53871;SDS011;39787;53.174;5.798;2023-07-20T01:12:59;2.30;;;1.90;;
53871;SDS011;39787;53.174;5.798;2023-07-20T01:15:02;1.63;;;1.52;;
53871;SDS011;39787;53.174;5.798;2023-07-20T01:16:03;1.60;;;1.60;;
53871;SDS011;39787;53.174;5.798;2023-07-20T01:18:05;1.95;;;1.67;;
53871;SDS011;39787;53.174;5.798;2023-07-20T01:19:06;2.30;;;2.10;;
53871;SDS011;39787;53.174;5.798;2023-07-20T01:20:07;2.40;;;1.60;;
53871;SDS011;39787;53.174;5.798;2023-07-20T01:21:12;1.85;;;1.75;;
53871;SDS011;39787;53.174;5.798;2023-07-20T01:26:24;1.77;;;1.58;;
53871;SDS011;39787;53.174;5.798;2023-07-20T01:30:43;2.03;;;1.77;;
53871;SDS011;39787;53.174;5.798;2023-07-20T01:31:49;2.78;;;2.00;;
53871;SDS011;39787;53.174;5.798;2023-07-20T01:32:53;2.00;;;1.83;;
53871;SDS011;39787;53.174;5.798;2023-07-20T01:33:56;6.75;;;2.35;;
53871;SDS011;39787;53.174;5.798;2023-07-20T01:34:58;3.38;;;1.88;;
53871;SDS011;39787;53.174;5.798;2023-07-20T01:36:00;2.45;;;1.92;;
53871;SDS011;39787;53.174;5.798;2023-07-20T01:37:01;2.30;;;1.67;;
53871;SDS011;39787;53.174;5.798;2023-07-20T01:38:03;1.80;;;1.70;;
53871;SDS011;39787;53.174;5.798;2023-07-20T01:39:04;4.35;;;1.90;;
53871;SDS011;39787;53.174;5.798;2023-07-20T01:40:06;3.83;;;1.95;;
53871;SDS011;39787;53.174;5.798;2023-07-20T01:41:08;2.63;;;1.80;;
53871;SDS011;39787;53.174;5.798;2023-07-20T01:42:08;2.78;;;1.70;;
53871;SDS011;39787;53.174;5.798;2023-07-20T01:43:09;2.03;;;1.90;;
53871;SDS011;39787;53.174;5.798;2023-07-20T01:44:10;2.10;;;1.98;;
53871;SDS011;39787;53.174;5.798;2023-07-20T01:45:10;2.97;;;2.00;;
53871;SDS011;39787;53.174;5.798;2023-07-20T01:46:11;3.30;;;2.00;;
53871;SDS011;39787;53.174;5.798;2023-07-20T01:47:11;1.83;;;1.70;;
53871;SDS011;39787;53.174;5.798;2023-07-20T01:48:12;1.80;;;1.70;;
53871;SDS011;39787;53.174;5.798;2023-07-20T01:49:12;1.97;;;1.80;;
53871;SDS011;39787;53.174;5.798;2023-07-20T01:50:13;2.00;;;1.90;;
53871;SDS011;39787;53.174;5.798;2023-07-20T01:51:13;3.30;;;1.90;;
53871;SDS011;39787;53.174;5.798;2023-07-20T01:52:14;5.47;;;2.20;;
53871;SDS011;39787;53.174;5.798;2023-07-20T01:53:14;2.10;;;1.70;;
53871;SDS011;39787;53.174;5.798;2023-07-20T01:54:15;2.93;;;2.10;;
53871;SDS011;39787;53.174;5.798;2023-07-20T01:55:15;2.17;;;1.87;;
53871;SDS011;39787;53.174;5.798;2023-07-20T01:56:16;2.37;;;1.70;;
53871;SDS011;39787;53.174;5.798;2023-07-20T01:57:16;2.00;;;1.70;;
53871;SDS011;39787;53.174;5.798;2023-07-20T01:58:17;2.80;;;2.00;;
53871;SDS011;39787;53.174;5.798;2023-07-20T01:59:17;3.93;;;2.10;;
53871;SDS011;39787;53.174;5.798;2023-07-20T02:00:18;1.90;;;1.80;;
53871;SDS011;39787;53.174;5.798;2023-07-20T02:01:18;3.53;;;2.03;;
53871;SDS011;39787;53.174;5.798;2023-07-20T02:02:19;2.03;;;1.80;;
53871;SDS011;39787;53.174;5.798;2023-07-20T02:03:19;3.53;;;1.90;;
53871;SDS011;39787;53.174;5.798;2023-07-20T02:04:20;7.10;;;2.00;;
53871;SDS011;39787;53.174;5.798;2023-07-20T02:05:20;2.20;;;2.00;;
53871;SDS011;39787;53.174;5.798;2023-07-20T02:06:21;4.57;;;1.90;;
53871;SDS011;39787;53.174;5.798;2023-07-20T02:07:21;8.33;;;2.10;;
53871;SDS011;39787;53.174;5.798;2023-07-20T02:08:22;2.90;;;1.90;;
53871;SDS011;39787;53.174;5.798;2023-07-20T02:09:22;2.17;;;1.70;;
53871;SDS011;39787;53.174;5.798;2023-07-20T02:10:23;4.10;;;2.17;;
53871;SDS011;39787;53.174;5.798;2023-07-20T02:11:23;2.60;;;2.30;;
53871;SDS011;39787;53.174;5.798;2023-07-20T02:12:24;5.97;;;1.83;;
53871;SDS011;39787;53.174;5.798;2023-07-20T02:13:24;2.10;;;1.90;;
53871;SDS011;39787;53.174;5.798;2023-07-20T02:14:25;1.97;;;1.80;;
53871;SDS011;39787;53.174;5.798;2023-07-20T02:15:25;2.10;;;1.87;;
53871;SDS011;39787;53.174;5.798;2023-07-20T02:16:26;4.37;;;2.10;;
53871;SDS011;39787;53.174;5.798;2023-07-20T02:17:26;2.47;;;1.90;;
53871;SDS011;39787;53.174;5.798;2023-07-20T02:18:27;2.00;;;1.70;;
53871;SDS011;39787;53.174;5.798;2023-07-20T02:19:28;4.43;;;1.90;;
53871;SDS011;39787;53.174;5.798;2023-07-20T02:20:29;2.08;;;1.98;;
53871;SDS011;39787;53.174;5.798;2023-07-20T02:21:30;2.20;;;2.00;;
53871;SDS011;39787;53.174;5.798;2023-07-20T02:22:30;1.90;;;1.80;;
53871;SDS011;39787;53.174;5.798;2023-07-20T02:23:31;2.97;;;1.93;;
53871;SDS011;39787;53.174;5.798;2023-07-20T02:24:32;4.80;;;1.90;;
53871;SDS011;39787;53.174;5.798;2023-07-20T02:25:33;3.75;;;2.08;;
53871;SDS011;39787;53.174;5.798;2023-07-20T02:26:34;2.47;;;2.17;;
53871;SDS011;39787;53.174;5.798;2023-07-20T02:27:34;5.33;;;2.13;;
53871;SDS011;39787;53.174;5.798;2023-07-20T02:28:35;2.53;;;2.40;;
53871;SDS011;39787;53.174;5.798;2023-07-20T02:29:35;4.67;;;2.10;;
53871;SDS011;39787;53.174;5.798;2023-07-20T02:30:39;2.87;;;2.33;;
53871;SDS011;39787;53.174;5.798;2023-07-20T02:31:39;3.33;;;2.17;;
53871;SDS011;39787;53.174;5.798;2023-07-20T02:32:40;2.30;;;2.10;;
53871;SDS011;39787;53.174;5.798;2023-07-20T02:33:40;4.43;;;2.27;;
53871;SDS011;39787;53.174;5.798;2023-07-20T02:34:41;7.13;;;2.30;;
53871;SDS011;39787;53.174;5.798;2023-07-20T02:35:41;2.33;;;1.87;;
53871;SDS011;39787;53.174;5.798;2023-07-20T02:36:42;2.50;;;1.90;;
53871;SDS011;39787;53.174;5.798;2023-07-20T02:37:42;2.73;;;1.80;;
53871;SDS011;39787;53.174;5.798;2023-07-20T02:38:43;1.90;;;1.80;;
53871;SDS011;39787;53.174;5.798;2023-07-20T02:39:43;6.53;;;2.30;;
53871;SDS011;39787;53.174;5.798;2023-07-20T02:40:44;2.03;;;1.93;;
53871;SDS011;39787;53.174;5.798;2023-07-20T02:41:44;3.50;;;2.33;;
53871;SDS011;39787;53.174;5.798;2023-07-20T02:42:45;2.03;;;1.87;;
53871;SDS011;39787;53.174;5.798;2023-07-20T02:43:45;2.47;;;2.37;;
53871;SDS011;39787;53.174;5.798;2023-07-20T02:44:45;2.60;;;1.97;;
53871;SDS011;39787;53.174;5.798;2023-07-20T02:45:46;4.07;;;2.30;;
53871;SDS011;39787;53.174;5.798;2023-07-20T02:46:47;3.47;;;2.00;;
53871;SDS011;39787;53.174;5.798;2023-07-20T02:47:47;2.30;;;1.90;;
53871;SDS011;39787;53.174;5.798;2023-07-20T02:48:48;3.07;;;1.87;;
53871;SDS011;39787;53.174;5.798;2023-07-20T02:49:48;6.13;;;2.00;;
53871;SDS011;39787;53.174;5.798;2023-07-20T02:50:49;2.37;;;2.07;;
53871;SDS011;39787;53.174;5.798;2023-07-20T02:51:49;5.23;;;2.13;;
53871;SDS011;39787;53.174;5.798;2023-07-20T02:52:50;3.23;;;2.67;;
53871;SDS011;39787;53.174;5.798;2023-07-20T02:53:50;3.20;;;2.07;;
53871;SDS011;39787;53.174;5.798;2023-07-20T02:54:51;2.50;;;2.03;;
53871;SDS011;39787;53.174;5.798;2023-07-20T02:55:51;3.13;;;2.30;;
53871;SDS011;39787;53.174;5.798;2023-07-20T02:56:52;3.30;;;2.30;;
53871;SDS011;39787;53.174;5.798;2023-07-20T02:57:52;4.67;;;1.97;;
53871;SDS011;39787;53.174;5.798;2023-07-20T02:58:53;3.60;;;2.20;;
53871;SDS011;39787;53.174;5.798;2023-07-20T02:59:53;5.80;;;2.20;;
53871;SDS011;39787;53.174;5.798;2023-07-20T03:00:53;1.93;;;1.73;;
53871;SDS011;39787;53.174;5.798;2023-07-20T03:01:54;2.47;;;2.27;;
53871;SDS011;39787;53.174;5.798;2023-07-20T03:02:54;6.37;;;2.30;;
53871;SDS011;39787;53.174;5.798;2023-07-20T03:03:55;2.00;;;1.70;;
53871;SDS011;39787;53.174;5.798;2023-07-20T03:04:56;3.37;;;2.37;;
53871;SDS011;39787;53.174;5.798;2023-07-20T03:05:56;3.90;;;2.30;;
53871;SDS011;39787;53.174;5.798;2023-07-20T03:06:56;13.77;;;2.40;;
53871;SDS011;39787;53.174;5.798;2023-07-20T03:07:57;2.67;;;1.90;;
53871;SDS011;39787;53.174;5.798;2023-07-20T03:08:57;2.47;;;2.07;;
53871;SDS011;39787;53.174;5.798;2023-07-20T03:09:58;4.13;;;2.30;;
53871;SDS011;39787;53.174;5.798;2023-07-20T03:10:58;5.77;;;1.93;;
53871;SDS011;39787;53.174;5.798;2023-07-20T03:11:59;1.83;;;1.70;;
53871;SDS011;39787;53.174;5.798;2023-07-20T03:12:59;5.17;;;1.77;;
53871;SDS011;39787;53.174;5.798;2023-07-20T03:14:00;5.43;;;2.07;;
53871;SDS011;39787;53.174;5.798;2023-07-20T03:15:03;4.37;;;2.00;;
53871;SDS011;39787;53.174;5.798;2023-07-20T03:16:04;3.20;;;1.85;;
53871;SDS011;39787;53.174;5.798;2023-07-20T03:17:05;4.17;;;2.23;;
53871;SDS011;39787;53.174;5.798;2023-07-20T03:18:06;6.23;;;2.03;;
53871;SDS011;39787;53.174;5.798;2023-07-20T03:19:06;2.17;;;2.00;;
53871;SDS011;39787;53.174;5.798;2023-07-20T03:20:07;4.60;;;2.10;;
53871;SDS011;39787;53.174;5.798;2023-07-20T03:21:08;2.80;;;1.90;;
53871;SDS011;39787;53.174;5.798;2023-07-20T03:22:09;2.17;;;2.03;;
53871;SDS011;39787;53.174;5.798;2023-07-20T03:23:10;2.33;;;2.13;;
53871;SDS011;39787;53.174;5.798;2023-07-20T03:24:10;2.50;;;2.20;;
53871;SDS011;39787;53.174;5.798;2023-07-20T03:25:11;2.93;;;2.13;;
53871;SDS011;39787;53.174;5.798;2023-07-20T03:26:11;6.50;;;2.10;;
53871;SDS011;39787;53.174;5.798;2023-07-20T03:27:12;1.97;;;1.87;;
53871;SDS011;39787;53.174;5.798;2023-07-20T03:28:13;2.47;;;2.27;;
53871;SDS011;39787;53.174;5.798;2023-07-20T03:29:13;2.23;;;2.00;;
53871;SDS011;39787;53.174;5.798;2023-07-20T03:30:14;3.77;;;2.40;;
53871;SDS011;39787;53.174;5.798;2023-07-20T03:31:14;5.03;;;2.33;;
53871;SDS011;39787;53.174;5.798;2023-07-20T03:32:15;2.67;;;2.00;;
53871;SDS011;39787;53.174;5.798;2023-07-20T03:33:15;3.07;;;2.17;;
53871;SDS011;39787;53.174;5.798;2023-07-20T03:34:15;2.50;;;2.30;;
53871;SDS011;39787;53.174;5.798;2023-07-20T03:35:16;2.10;;;1.90;;
53871;SDS011;39787;53.174;5.798;2023-07-20T03:36:16;2.30;;;2.20;;
53871;SDS011;39787;53.174;5.798;2023-07-20T03:37:17;5.57;;;2.40;;
53871;SDS011;39787;53.174;5.798;2023-07-20T03:38:17;2.33;;;2.13;;
53871;SDS011;39787;53.174;5.798;2023-07-20T03:39:18;3.70;;;2.27;;
53871;SDS011;39787;53.174;5.798;2023-07-20T03:40:18;2.00;;;1.90;;
53871;SDS011;39787;53.174;5.798;2023-07-20T03:41:19;5.73;;;2.80;;
53871;SDS011;39787;53.174;5.798;2023-07-20T03:42:19;3.50;;;2.47;;
53871;SDS011;39787;53.174;5.798;2023-07-20T03:43:21;3.47;;;2.23;;
53871;SDS011;39787;53.174;5.798;2023-07-20T03:44:22;2.42;;;2.28;;
53871;SDS011;39787;53.174;5.798;2023-07-20T03:45:23;2.93;;;2.20;;
53871;SDS011;39787;53.174;5.798;2023-07-20T03:46:23;2.50;;;2.30;;
53871;SDS011;39787;53.174;5.798;2023-07-20T03:47:24;5.33;;;2.23;;
53871;SDS011;39787;53.174;5.798;2023-07-20T03:48:24;3.47;;;2.20;;
53871;SDS011;39787;53.174;5.798;2023-07-20T03:49:25;3.55;;;2.30;;
53871;SDS011;39787;53.174;5.798;2023-07-20T03:50:26;5.43;;;2.37;;
53871;SDS011;39787;53.174;5.798;2023-07-20T03:51:26;3.70;;;2.30;;
53871;SDS011;39787;53.174;5.798;2023-07-20T03:52:27;3.10;;;2.00;;
53871;SDS011;39787;53.174;5.798;2023-07-20T03:53:27;2.40;;;2.30;;
53871;SDS011;39787;53.174;5.798;2023-07-20T03:54:27;10.53;;;2.50;;
53871;SDS011;39787;53.174;5.798;2023-07-20T03:55:28;4.57;;;2.10;;
53871;SDS011;39787;53.174;5.798;2023-07-20T03:56:29;2.50;;;2.30;;
53871;SDS011;39787;53.174;5.798;2023-07-20T03:57:29;4.37;;;2.30;;
53871;SDS011;39787;53.174;5.798;2023-07-20T03:58:30;5.20;;;2.87;;
53871;SDS011;39787;53.174;5.798;2023-07-20T03:59:30;5.10;;;2.57;;
53871;SDS011;39787;53.174;5.798;2023-07-20T04:00:31;6.50;;;2.37;;
53871;SDS011;39787;53.174;5.798;2023-07-20T04:01:31;3.63;;;2.37;;
53871;SDS011;39787;53.174;5.798;2023-07-20T04:02:31;3.87;;;2.47;;
53871;SDS011;39787;53.174;5.798;2023-07-20T04:03:32;6.00;;;2.40;;
53871;SDS011;39787;53.174;5.798;2023-07-20T04:04:32;2.47;;;2.27;;
53871;SDS011;39787;53.174;5.798;2023-07-20T04:05:33;4.67;;;2.50;;
53871;SDS011;39787;53.174;5.798;2023-07-20T04:06:34;3.50;;;2.10;;
53871;SDS011;39787;53.174;5.798;2023-07-20T04:07:34;3.25;;;2.42;;
53871;SDS011;39787;53.174;5.798;2023-07-20T04:08:37;6.13;;;2.60;;
53871;SDS011;39787;53.174;5.798;2023-07-20T04:09:38;7.22;;;2.40;;
53871;SDS011;39787;53.174;5.798;2023-07-20T04:10:38;6.77;;;2.70;;
53871;SDS011;39787;53.174;5.798;2023-07-20T04:11:39;5.43;;;2.50;;
53871;SDS011;39787;53.174;5.798;2023-07-20T04:12:39;3.83;;;2.53;;
53871;SDS011;39787;53.174;5.798;2023-07-20T04:13:40;2.43;;;2.23;;
53871;SDS011;39787;53.174;5.798;2023-07-20T04:14:40;4.40;;;2.50;;
53871;SDS011;39787;53.174;5.798;2023-07-20T04:15:42;5.77;;;2.30;;
53871;SDS011;39787;53.174;5.798;2023-07-20T04:16:42;3.55;;;2.60;;
53871;SDS011;39787;53.174;5.798;2023-07-20T04:17:43;5.03;;;3.13;;
53871;SDS011;39787;53.174;5.798;2023-07-20T04:18:45;2.42;;;2.20;;
53871;SDS011;39787;53.174;5.798;2023-07-20T04:19:45;2.57;;;2.27;;
53871;SDS011;39787;53.174;5.798;2023-07-20T04:20:46;2.83;;;2.53;;
53871;SDS011;39787;53.174;5.798;2023-07-20T04:21:46;2.40;;;2.20;;
53871;SDS011;39787;53.174;5.798;2023-07-20T04:22:47;3.83;;;2.23;;
53871;SDS011;39787;53.174;5.798;2023-07-20T04:23:47;2.33;;;2.20;;
53871;SDS011;39787;53.174;5.798;2023-07-20T04:24:48;2.37;;;2.10;;
53871;SDS011;39787;53.174;5.798;2023-07-20T04:25:48;2.60;;;2.47;;
53871;SDS011;39787;53.174;5.798;2023-07-20T04:26:49;3.40;;;2.63;;
53871;SDS011;39787;53.174;5.798;2023-07-20T04:27:49;3.23;;;2.33;;
53871;SDS011;39787;53.174;5.798;2023-07-20T04:28:50;3.53;;;2.43;;
53871;SDS011;39787;53.174;5.798;2023-07-20T04:29:50;5.60;;;2.50;;
53871;SDS011;39787;53.174;5.798;2023-07-20T04:30:52;4.20;;;2.73;;
53871;SDS011;39787;53.174;5.798;2023-07-20T04:31:52;8.88;;;2.47;;
53871;SDS011;39787;53.174;5.798;2023-07-20T04:32:53;4.77;;;2.33;;
53871;SDS011;39787;53.174;5.798;2023-07-20T04:33:53;6.93;;;2.60;;
53871;SDS011;39787;53.174;5.798;2023-07-20T04:34:54;3.63;;;2.37;;
53871;SDS011;39787;53.174;5.798;2023-07-20T04:35:54;6.13;;;2.40;;
53871;SDS011;39787;53.174;5.798;2023-07-20T04:36:55;5.70;;;2.00;;
53871;SDS011;39787;53.174;5.798;2023-07-20T04:37:55;2.43;;;2.33;;
53871;SDS011;39787;53.174;5.798;2023-07-20T04:38:55;3.50;;;2.33;;
53871;SDS011;39787;53.174;5.798;2023-07-20T04:39:56;6.47;;;2.23;;
53871;SDS011;39787;53.174;5.798;2023-07-20T04:40:56;2.10;;;2.00;;
53871;SDS011;39787;53.174;5.798;2023-07-20T04:41:57;3.00;;;2.07;;
53871;SDS011;39787;53.174;5.798;2023-07-20T04:42:58;4.32;;;2.05;;
53871;SDS011;39787;53.174;5.798;2023-07-20T04:43:58;5.10;;;2.30;;
53871;SDS011;39787;53.174;5.798;2023-07-20T04:44:59;3.43;;;2.30;;
53871;SDS011;39787;53.174;5.798;2023-07-20T04:45:59;13.53;;;2.20;;
53871;SDS011;39787;53.174;5.798;2023-07-20T04:47:00;2.73;;;2.53;;
53871;SDS011;39787;53.174;5.798;2023-07-20T04:48:00;5.40;;;1.97;;
53871;SDS011;39787;53.174;5.798;2023-07-20T04:49:01;8.40;;;2.40;;
53871;SDS011;39787;53.174;5.798;2023-07-20T04:50:01;4.20;;;1.90;;
53871;SDS011;39787;53.174;5.798;2023-07-20T04:51:02;2.00;;;1.83;;
53871;SDS011;39787;53.174;5.798;2023-07-20T04:52:03;2.60;;;1.95;;
53871;SDS011;39787;53.174;5.798;2023-07-20T04:53:03;3.58;;;1.98;;
53871;SDS011;39787;53.174;5.798;2023-07-20T04:54:04;4.97;;;2.20;;
53871;SDS011;39787;53.174;5.798;2023-07-20T04:55:05;10.53;;;2.60;;
53871;SDS011;39787;53.174;5.798;2023-07-20T04:56:05;5.50;;;2.53;;
53871;SDS011;39787;53.174;5.798;2023-07-20T04:57:11;3.63;;;1.87;;
53871;SDS011;39787;53.174;5.798;2023-07-20T04:58:11;5.22;;;2.40;;
53871;SDS011;39787;53.174;5.798;2023-07-20T04:59:12;5.37;;;2.10;;
53871;SDS011;39787;53.174;5.798;2023-07-20T05:00:13;3.23;;;2.10;;
53871;SDS011;39787;53.174;5.798;2023-07-20T05:01:13;4.43;;;1.90;;
53871;SDS011;39787;53.174;5.798;2023-07-20T05:02:14;6.47;;;1.80;;
53871;SDS011;39787;53.174;5.798;2023-07-20T05:03:14;6.10;;;3.13;;
53871;SDS011;39787;53.174;5.798;2023-07-20T05:04:15;4.67;;;2.20;;
53871;SDS011;39787;53.174;5.798;2023-07-20T05:05:15;6.00;;;2.37;;
53871;SDS011;39787;53.174;5.798;2023-07-20T05:06:16;4.33;;;2.57;;
53871;SDS011;39787;53.174;5.798;2023-07-20T05:07:16;6.60;;;1.70;;
53871;SDS011;39787;53.174;5.798;2023-07-20T05:08:17;4.80;;;1.43;;
53871;SDS011;39787;53.174;5.798;2023-07-20T05:09:17;3.53;;;1.70;;
53871;SDS011;39787;53.174;5.798;2023-07-20T05:10:18;6.20;;;1.97;;
53871;SDS011;39787;53.174;5.798;2023-07-20T05:11:18;3.30;;;1.87;;
53871;SDS011;39787;53.174;5.798;2023-07-20T05:12:19;2.57;;;1.77;;
53871;SDS011;39787;53.174;5.798;2023-07-20T05:13:19;3.40;;;1.80;;
53871;SDS011;39787;53.174;5.798;2023-07-20T05:14:20;2.40;;;1.67;;
53871;SDS011;39787;53.174;5.798;2023-07-20T05:15:20;1.87;;;1.40;;
53871;SDS011;39787;53.174;5.798;2023-07-20T05:16:21;5.80;;;2.10;;
53871;SDS011;39787;53.174;5.798;2023-07-20T05:17:21;7.73;;;1.80;;
53871;SDS011;39787;53.174;5.798;2023-07-20T05:18:22;4.70;;;2.03;;
53871;SDS011;39787;53.174;5.798;2023-07-20T05:19:24;4.25;;;1.58;;
53871;SDS011;39787;53.174;5.798;2023-07-20T05:20:25;4.72;;;1.70;;
53871;SDS011;39787;53.174;5.798;2023-07-20T05:21:25;1.77;;;1.37;;
53871;SDS011;39787;53.174;5.798;2023-07-20T05:22:26;3.57;;;1.53;;
53871;SDS011;39787;53.174;5.798;2023-07-20T05:23:26;4.47;;;1.50;;
53871;SDS011;39787;53.174;5.798;2023-07-20T05:24:27;4.30;;;1.73;;
53871;SDS011;39787;53.174;5.798;2023-07-20T05:25:27;3.13;;;1.53;;
53871;SDS011;39787;53.174;5.798;2023-07-20T05:26:28;2.00;;;1.40;;
53871;SDS011;39787;53.174;5.798;2023-07-20T05:27:28;5.23;;;1.70;;
53871;SDS011;39787;53.174;5.798;2023-07-20T05:28:29;6.20;;;1.70;;
53871;SDS011;39787;53.174;5.798;2023-07-20T05:29:29;4.37;;;2.20;;
53871;SDS011;39787;53.174;5.798;2023-07-20T05:30:29;3.97;;;2.17;;
53871;SDS011;39787;53.174;5.798;2023-07-20T05:31:30;5.90;;;1.87;;
53871;SDS011;39787;53.174;5.798;2023-07-20T05:32:30;1.37;;;1.30;;
53871;SDS011;39787;53.174;5.798;2023-07-20T05:33:31;1.63;;;1.40;;
53871;SDS011;39787;53.174;5.798;2023-07-20T05:34:31;2.83;;;1.33;;
53871;SDS011;39787;53.174;5.798;2023-07-20T05:35:32;3.10;;;1.33;;
53871;SDS011;39787;53.174;5.798;2023-07-20T05:36:32;8.03;;;2.00;;
53871;SDS011;39787;53.174;5.798;2023-07-20T05:37:33;5.37;;;1.37;;
53871;SDS011;39787;53.174;5.798;2023-07-20T05:38:33;3.87;;;1.57;;
53871;SDS011;39787;53.174;5.798;2023-07-20T05:39:34;5.63;;;1.57;;
53871;SDS011;39787;53.174;5.798;2023-07-20T05:40:37;4.80;;;1.80;;
53871;SDS011;39787;53.174;5.798;2023-07-20T05:41:38;3.08;;;1.42;;
53871;SDS011;39787;53.174;5.798;2023-07-20T05:42:38;1.30;;;1.20;;
53871;SDS011;39787;53.174;5.798;2023-07-20T05:43:39;2.53;;;1.50;;
53871;SDS011;39787;53.174;5.798;2023-07-20T05:44:39;6.43;;;1.70;;
53871;SDS011;39787;53.174;5.798;2023-07-20T05:45:43;3.83;;;1.50;;
53871;SDS011;39787;53.174;5.798;2023-07-20T05:46:44;4.60;;;1.83;;
53871;SDS011;39787;53.174;5.798;2023-07-20T05:47:44;6.83;;;1.80;;
53871;SDS011;39787;53.174;5.798;2023-07-20T05:48:46;2.53;;;1.50;;
53871;SDS011;39787;53.174;5.798;2023-07-20T05:49:46;3.93;;;1.40;;
53871;SDS011;39787;53.174;5.798;2023-07-20T05:50:47;4.97;;;1.70;;
53871;SDS011;39787;53.174;5.798;2023-07-20T05:51:47;4.60;;;1.40;;
53871;SDS011;39787;53.174;5.798;2023-07-20T05:52:48;2.07;;;1.60;;
53871;SDS011;39787;53.174;5.798;2023-07-20T05:53:48;7.13;;;1.63;;
53871;SDS011;39787;53.174;5.798;2023-07-20T05:54:49;3.77;;;1.50;;
53871;SDS011;39787;53.174;5.798;2023-07-20T05:55:53;1.93;;;1.23;;
53871;SDS011;39787;53.174;5.798;2023-07-20T05:56:53;6.60;;;1.52;;
53871;SDS011;39787;53.174;5.798;2023-07-20T05:57:54;1.60;;;1.17;;
53871;SDS011;39787;53.174;5.798;2023-07-20T05:58:54;3.53;;;1.63;;
53871;SDS011;39787;53.174;5.798;2023-07-20T05:59:55;3.73;;;1.73;;
53871;SDS011;39787;53.174;5.798;2023-07-20T06:00:55;4.70;;;1.33;;
53871;SDS011;39787;53.174;5.798;2023-07-20T06:01:56;5.33;;;1.30;;
53871;SDS011;39787;53.174;5.798;2023-07-20T06:02:56;7.63;;;1.33;;
53871;SDS011;39787;53.174;5.798;2023-07-20T06:03:57;6.10;;;1.43;;
53871;SDS011;39787;53.174;5.798;2023-07-20T06:04:57;1.87;;;1.07;;
53871;SDS011;39787;53.174;5.798;2023-07-20T06:06:01;3.53;;;1.00;;
53871;SDS011;39787;53.174;5.798;2023-07-20T06:07:01;8.77;;;0.98;;
53871;SDS011;39787;53.174;5.798;2023-07-20T06:08:02;3.37;;;0.80;;
53871;SDS011;39787;53.174;5.798;2023-07-20T06:09:03;2.90;;;0.63;;
53871;SDS011;39787;53.174;5.798;2023-07-20T06:10:04;0.95;;;0.70;;
53871;SDS011;39787;53.174;5.798;2023-07-20T06:11:06;3.50;;;1.02;;
53871;SDS011;39787;53.174;5.798;2023-07-20T06:12:07;4.30;;;0.90;;
53871;SDS011;39787;53.174;5.798;2023-07-20T06:14:08;4.85;;;1.02;;
53871;SDS011;39787;53.174;5.798;2023-07-20T06:16:48;4.57;;;0.88;;
53871;SDS011;39787;53.174;5.798;2023-07-20T06:17:48;1.03;;;0.70;;
53871;SDS011;39787;53.174;5.798;2023-07-20T06:18:49;1.63;;;0.73;;
53871;SDS011;39787;53.174;5.798;2023-07-20T06:19:49;3.80;;;0.93;;
53871;SDS011;39787;53.174;5.798;2023-07-20T06:20:50;1.97;;;0.63;;
53871;SDS011;39787;53.174;5.798;2023-07-20T06:21:51;3.17;;;0.80;;
53871;SDS011;39787;53.174;5.798;2023-07-20T06:22:51;1.90;;;0.63;;
53871;SDS011;39787;53.174;5.798;2023-07-20T06:23:52;4.27;;;1.00;;